sensor_id;sensor_type;location;lat;lon;timestamp;temperature;humidity
10175;DHT22;18221;38.704;0.152;2023-05-01T14:44:32;22.80;99.90
10175;DHT22;18221;38.704;0.152;2023-05-01T14:47:07;22.80;99.90
10175;DHT22;18221;38.704;0.152;2023-05-01T14:49:42;22.80;99.90
10175;DHT22;18221;38.704;0.152;2023-05-01T14:52:11;22.80;99.90
10175;DHT22;18221;38.704;0.152;2023-05-01T14:54:46;22.80;99.90
10175;DHT22;18221;38.704;0.152;2023-05-01T14:57:17;22.90;99.90
10175;DHT22;18221;38.704;0.152;2023-05-01T14:59:47;22.90;99.90
10175;DHT22;18221;38.704;0.152;2023-05-01T15:02:15;22.80;99.90
10175;DHT22;18221;38.704;0.152;2023-05-01T15:04:45;22.80;99.90
10175;DHT22;18221;38.704;0.152;2023-05-01T15:07:14;22.80;99.90
10175;DHT22;18221;38.704;0.152;2023-05-01T15:09:42;22.90;99.90
10175;DHT22;18221;38.704;0.152;2023-05-01T15:12:11;22.80;99.90
10175;DHT22;18221;38.704;0.152;2023-05-01T15:14:39;22.70;99.90
10175;DHT22;18221;38.704;0.152;2023-05-01T15:17:09;22.80;99.90
10175;DHT22;18221;38.704;0.152;2023-05-01T15:19:40;22.90;99.90
10175;DHT22;18221;38.704;0.152;2023-05-01T15:22:08;22.90;99.90
10175;DHT22;18221;38.704;0.152;2023-05-01T15:24:37;23.00;99.90
10175;DHT22;18221;38.704;0.152;2023-05-01T15:27:05;22.90;99.90
10175;DHT22;18221;38.704;0.152;2023-05-01T15:29:40;22.90;99.90
10175;DHT22;18221;38.704;0.152;2023-05-01T15:32:10;23.00;99.90
10175;DHT22;18221;38.704;0.152;2023-05-01T15:34:39;23.00;99.90
10175;DHT22;18221;38.704;0.152;2023-05-01T15:37:07;22.80;99.90
10175;DHT22;18221;38.704;0.152;2023-05-01T15:39:36;22.90;99.90
10175;DHT22;18221;38.704;0.152;2023-05-01T15:42:05;23.00;99.90
10175;DHT22;18221;38.704;0.152;2023-05-01T15:44:33;22.90;99.90
10175;DHT22;18221;38.704;0.152;2023-05-01T15:47:02;22.90;99.90
10175;DHT22;18221;38.704;0.152;2023-05-01T15:49:35;23.00;99.90
10175;DHT22;18221;38.704;0.152;2023-05-01T15:52:04;22.80;99.90
10175;DHT22;18221;38.704;0.152;2023-05-01T15:54:34;22.90;99.90
10175;DHT22;18221;38.704;0.152;2023-05-01T15:57:05;22.70;99.90
10175;DHT22;18221;38.704;0.152;2023-05-01T15:59:38;22.70;99.90
10175;DHT22;18221;38.704;0.152;2023-05-01T16:02:10;22.70;99.90
10175;DHT22;18221;38.704;0.152;2023-05-01T16:04:40;22.60;99.90
10175;DHT22;18221;38.704;0.152;2023-05-01T16:07:15;22.50;99.90
10175;DHT22;18221;38.704;0.152;2023-05-01T16:09:46;22.60;99.90
10175;DHT22;18221;38.704;0.152;2023-05-01T16:12:15;22.70;99.90
10175;DHT22;18221;38.704;0.152;2023-05-01T16:14:44;22.70;99.90
10175;DHT22;18221;38.704;0.152;2023-05-01T16:17:17;22.60;99.90
10175;DHT22;18221;38.704;0.152;2023-05-01T16:19:49;22.50;99.90
10175;DHT22;18221;38.704;0.152;2023-05-01T16:22:18;22.70;99.90
10175;DHT22;18221;38.704;0.152;2023-05-01T16:24:47;22.70;99.90
10175;DHT22;18221;38.704;0.152;2023-05-01T16:27:17;22.50;99.90
10175;DHT22;18221;38.704;0.152;2023-05-01T16:29:45;22.40;99.90
10175;DHT22;18221;38.704;0.152;2023-05-01T16:32:16;22.20;99.90
10175;DHT22;18221;38.704;0.152;2023-05-01T16:34:47;22.30;99.90
10175;DHT22;18221;38.704;0.152;2023-05-01T16:37:16;22.30;99.90
10175;DHT22;18221;38.704;0.152;2023-05-01T16:39:48;22.30;99.90
10175;DHT22;18221;38.704;0.152;2023-05-01T16:42:17;22.50;99.90
10175;DHT22;18221;38.704;0.152;2023-05-01T16:44:46;22.20;99.90
10175;DHT22;18221;38.704;0.152;2023-05-01T16:47:17;22.20;99.90
10175;DHT22;18221;38.704;0.152;2023-05-01T16:49:47;22.10;99.90
10175;DHT22;18221;38.704;0.152;2023-05-01T16:52:17;22.10;99.90
10175;DHT22;18221;38.704;0.152;2023-05-01T16:54:47;22.30;99.90
10175;DHT22;18221;38.704;0.152;2023-05-01T16:57:18;22.00;99.90
10175;DHT22;18221;38.704;0.152;2023-05-01T16:59:46;21.90;99.90
10175;DHT22;18221;38.704;0.152;2023-05-01T17:02:17;21.90;99.90
10175;DHT22;18221;38.704;0.152;2023-05-01T17:04:47;21.80;99.90
10175;DHT22;18221;38.704;0.152;2023-05-01T17:07:19;21.80;99.90
10175;DHT22;18221;38.704;0.152;2023-05-01T17:09:51;21.90;99.90
10175;DHT22;18221;38.704;0.152;2023-05-01T17:12:19;22.10;99.90
10175;DHT22;18221;38.704;0.152;2023-05-01T17:14:50;21.60;99.90
10175;DHT22;18221;38.704;0.152;2023-05-01T17:17:20;21.50;99.90
10175;DHT22;18221;38.704;0.152;2023-05-01T17:19:53;21.50;99.90
10175;DHT22;18221;38.704;0.152;2023-05-01T17:22:22;21.30;99.90
10175;DHT22;18221;38.704;0.152;2023-05-01T17:24:50;21.30;99.90
10175;DHT22;18221;38.704;0.152;2023-05-01T17:27:18;21.30;99.90
10175;DHT22;18221;38.704;0.152;2023-05-01T17:29:47;21.30;99.90
10175;DHT22;18221;38.704;0.152;2023-05-01T17:32:23;21.20;99.90
10175;DHT22;18221;38.704;0.152;2023-05-01T17:34:55;21.10;99.90
10175;DHT22;18221;38.704;0.152;2023-05-01T17:37:24;21.10;99.90
10175;DHT22;18221;38.704;0.152;2023-05-01T17:39:52;20.90;99.90
10175;DHT22;18221;38.704;0.152;2023-05-01T17:42:21;20.90;99.90
10175;DHT22;18221;38.704;0.152;2023-05-01T17:44:49;21.00;99.90
10175;DHT22;18221;38.704;0.152;2023-05-01T17:47:18;21.00;99.90
10175;DHT22;18221;38.704;0.152;2023-05-01T17:49:47;21.00;99.90
10175;DHT22;18221;38.704;0.152;2023-05-01T17:52:18;20.90;99.90
10175;DHT22;18221;38.704;0.152;2023-05-01T17:54:46;20.90;99.90
10175;DHT22;18221;38.704;0.152;2023-05-01T17:57:18;20.90;99.90
10175;DHT22;18221;38.704;0.152;2023-05-01T17:59:49;20.80;99.90
10175;DHT22;18221;38.704;0.152;2023-05-01T18:02:24;20.60;99.90
10175;DHT22;18221;38.704;0.152;2023-05-01T18:04:53;20.50;99.90
10175;DHT22;18221;38.704;0.152;2023-05-01T18:07:23;20.30;99.90
10175;DHT22;18221;38.704;0.152;2023-05-01T18:09:51;20.30;99.90
10175;DHT22;18221;38.704;0.152;2023-05-01T18:12:20;20.30;99.90
10175;DHT22;18221;38.704;0.152;2023-05-01T18:14:50;20.20;99.90
10175;DHT22;18221;38.704;0.152;2023-05-01T18:17:23;20.10;99.90
10175;DHT22;18221;38.704;0.152;2023-05-01T18:19:53;20.10;99.90
10175;DHT22;18221;38.704;0.152;2023-05-01T18:22:23;20.00;99.90
10175;DHT22;18221;38.704;0.152;2023-05-01T18:24:52;20.00;99.90
10175;DHT22;18221;38.704;0.152;2023-05-01T18:27:21;19.90;99.90
10175;DHT22;18221;38.704;0.152;2023-05-01T18:29:54;19.90;99.90
10175;DHT22;18221;38.704;0.152;2023-05-01T18:32:22;19.90;99.90
10175;DHT22;18221;38.704;0.152;2023-05-01T18:34:52;19.80;99.90
10175;DHT22;18221;38.704;0.152;2023-05-01T18:37:23;19.70;99.90
10175;DHT22;18221;38.704;0.152;2023-05-01T18:39:52;19.40;99.90
10175;DHT22;18221;38.704;0.152;2023-05-01T18:42:22;19.60;99.90
10175;DHT22;18221;38.704;0.152;2023-05-01T18:44:50;19.60;99.90
10175;DHT22;18221;38.704;0.152;2023-05-01T18:47:26;19.60;99.90
10175;DHT22;18221;38.704;0.152;2023-05-01T18:49:54;19.60;99.90
10175;DHT22;18221;38.704;0.152;2023-05-01T18:52:24;19.50;99.90
10175;DHT22;18221;38.704;0.152;2023-05-01T18:54:56;19.40;99.90
10175;DHT22;18221;38.704;0.152;2023-05-01T18:57:24;19.40;99.90
10175;DHT22;18221;38.704;0.152;2023-05-01T18:59:53;19.40;99.90
10175;DHT22;18221;38.704;0.152;2023-05-01T19:02:22;19.40;99.90
10175;DHT22;18221;38.704;0.152;2023-05-01T19:04:50;19.30;99.90
10175;DHT22;18221;38.704;0.152;2023-05-01T19:07:18;19.30;99.90
10175;DHT22;18221;38.704;0.152;2023-05-01T19:09:48;19.30;99.90
10175;DHT22;18221;38.704;0.152;2023-05-01T19:12:22;19.40;99.90
10175;DHT22;18221;38.704;0.152;2023-05-01T19:14:50;19.40;99.90
10175;DHT22;18221;38.704;0.152;2023-05-01T19:17:18;19.30;99.90
10175;DHT22;18221;38.704;0.152;2023-05-01T19:19:48;19.20;99.90
10175;DHT22;18221;38.704;0.152;2023-05-01T19:22:17;19.10;99.90
10175;DHT22;18221;38.704;0.152;2023-05-01T19:24:45;19.10;99.90
10175;DHT22;18221;38.704;0.152;2023-05-01T19:27:15;19.00;99.90
10175;DHT22;18221;38.704;0.152;2023-05-01T19:29:44;19.10;99.90
10175;DHT22;18221;38.704;0.152;2023-05-01T19:32:15;19.00;99.90
10175;DHT22;18221;38.704;0.152;2023-05-01T19:34:45;19.10;99.90
10175;DHT22;18221;38.704;0.152;2023-05-01T19:37:14;19.00;99.90
10175;DHT22;18221;38.704;0.152;2023-05-01T19:39:42;19.00;99.90
10175;DHT22;18221;38.704;0.152;2023-05-01T19:42:13;19.00;99.90
10175;DHT22;18221;38.704;0.152;2023-05-01T19:44:42;19.10;99.90
10175;DHT22;18221;38.704;0.152;2023-05-01T19:47:12;19.20;99.90
10175;DHT22;18221;38.704;0.152;2023-05-01T19:49:40;18.90;99.90
10175;DHT22;18221;38.704;0.152;2023-05-01T19:52:10;19.00;99.90
10175;DHT22;18221;38.704;0.152;2023-05-01T19:54:38;19.00;99.90
10175;DHT22;18221;38.704;0.152;2023-05-01T19:57:08;19.00;99.90
10175;DHT22;18221;38.704;0.152;2023-05-01T19:59:39;19.00;99.90
10175;DHT22;18221;38.704;0.152;2023-05-01T20:02:07;18.90;99.90
10175;DHT22;18221;38.704;0.152;2023-05-01T20:04:36;18.80;99.90
10175;DHT22;18221;38.704;0.152;2023-05-01T20:07:04;18.80;99.90
10175;DHT22;18221;38.704;0.152;2023-05-01T20:09:34;18.80;99.90
10175;DHT22;18221;38.704;0.152;2023-05-01T20:12:06;18.80;99.90
10175;DHT22;18221;38.704;0.152;2023-05-01T20:14:47;18.70;99.90
10175;DHT22;18221;38.704;0.152;2023-05-01T20:17:16;18.70;99.90
10175;DHT22;18221;38.704;0.152;2023-05-01T20:19:44;18.70;99.90
10175;DHT22;18221;38.704;0.152;2023-05-01T20:22:12;18.70;99.90
10175;DHT22;18221;38.704;0.152;2023-05-01T20:24:41;18.70;99.90
10175;DHT22;18221;38.704;0.152;2023-05-01T20:27:11;18.70;99.90
10175;DHT22;18221;38.704;0.152;2023-05-01T20:29:43;18.70;99.90
10175;DHT22;18221;38.704;0.152;2023-05-01T20:32:12;18.70;99.90
10175;DHT22;18221;38.704;0.152;2023-05-01T20:34:40;18.60;99.90
10175;DHT22;18221;38.704;0.152;2023-05-01T20:37:10;18.70;99.90
10175;DHT22;18221;38.704;0.152;2023-05-01T20:39:39;18.60;99.90
10175;DHT22;18221;38.704;0.152;2023-05-01T20:42:07;18.60;99.90
10175;DHT22;18221;38.704;0.152;2023-05-01T20:44:43;18.60;99.90
10175;DHT22;18221;38.704;0.152;2023-05-01T20:47:16;18.60;99.90
10175;DHT22;18221;38.704;0.152;2023-05-01T20:49:44;18.60;99.90
10175;DHT22;18221;38.704;0.152;2023-05-01T20:52:13;18.60;99.90
10175;DHT22;18221;38.704;0.152;2023-05-01T20:54:42;18.50;99.90
10175;DHT22;18221;38.704;0.152;2023-05-01T20:57:11;18.50;99.90
10175;DHT22;18221;38.704;0.152;2023-05-01T20:59:46;18.50;99.90
10175;DHT22;18221;38.704;0.152;2023-05-01T21:02:15;18.50;99.90
10175;DHT22;18221;38.704;0.152;2023-05-01T21:04:44;18.50;99.90
10175;DHT22;18221;38.704;0.152;2023-05-01T21:07:15;18.40;99.90
10175;DHT22;18221;38.704;0.152;2023-05-01T21:09:43;18.40;99.90
10175;DHT22;18221;38.704;0.152;2023-05-01T21:12:13;18.50;99.90
10175;DHT22;18221;38.704;0.152;2023-05-01T21:14:43;18.50;99.90
10175;DHT22;18221;38.704;0.152;2023-05-01T21:17:17;18.50;99.90
10175;DHT22;18221;38.704;0.152;2023-05-01T21:19:46;18.40;99.90
10175;DHT22;18221;38.704;0.152;2023-05-01T21:22:16;18.50;99.90
10175;DHT22;18221;38.704;0.152;2023-05-01T21:24:51;18.40;99.90
10175;DHT22;18221;38.704;0.152;2023-05-01T21:27:20;18.50;99.90
10175;DHT22;18221;38.704;0.152;2023-05-01T21:29:56;18.40;99.90
10175;DHT22;18221;38.704;0.152;2023-05-01T21:32:32;18.50;99.90
10175;DHT22;18221;38.704;0.152;2023-05-01T21:35:07;18.50;99.90
10175;DHT22;18221;38.704;0.152;2023-05-01T21:37:36;18.60;99.90
10175;DHT22;18221;38.704;0.152;2023-05-01T21:40:10;18.60;99.90
10175;DHT22;18221;38.704;0.152;2023-05-01T21:42:40;18.50;99.90
10175;DHT22;18221;38.704;0.152;2023-05-01T21:45:12;18.60;99.90
10175;DHT22;18221;38.704;0.152;2023-05-01T21:47:44;18.60;99.90
10175;DHT22;18221;38.704;0.152;2023-05-01T21:50:15;18.60;99.90
10175;DHT22;18221;38.704;0.152;2023-05-01T21:52:48;18.50;99.90
10175;DHT22;18221;38.704;0.152;2023-05-01T21:55:18;18.50;99.90
10175;DHT22;18221;38.704;0.152;2023-05-01T21:57:48;18.50;99.90
10175;DHT22;18221;38.704;0.152;2023-05-01T22:00:19;18.60;99.90
10175;DHT22;18221;38.704;0.152;2023-05-01T22:02:48;18.60;99.90
10175;DHT22;18221;38.704;0.152;2023-05-01T22:05:23;18.60;99.90
10175;DHT22;18221;38.704;0.152;2023-05-01T22:07:56;18.50;99.90
10175;DHT22;18221;38.704;0.152;2023-05-01T22:10:25;18.40;99.90
10175;DHT22;18221;38.704;0.152;2023-05-01T22:12:55;18.40;99.90
10175;DHT22;18221;38.704;0.152;2023-05-01T22:15:25;18.40;99.90
10175;DHT22;18221;38.704;0.152;2023-05-01T22:17:53;18.30;99.90
10175;DHT22;18221;38.704;0.152;2023-05-01T22:20:22;18.30;99.90
10175;DHT22;18221;38.704;0.152;2023-05-01T22:22:50;18.30;99.90
10175;DHT22;18221;38.704;0.152;2023-05-01T22:25:18;18.30;99.90
10175;DHT22;18221;38.704;0.152;2023-05-01T22:27:47;18.20;99.90
10175;DHT22;18221;38.704;0.152;2023-05-01T22:30:18;18.20;99.90
10175;DHT22;18221;38.704;0.152;2023-05-01T22:32:49;18.20;99.90
10175;DHT22;18221;38.704;0.152;2023-05-01T22:35:17;18.10;99.90
10175;DHT22;18221;38.704;0.152;2023-05-01T22:37:46;18.10;99.90
10175;DHT22;18221;38.704;0.152;2023-05-01T22:40:14;19.40;99.90
10175;DHT22;18221;38.704;0.152;2023-05-01T22:42:43;18.20;99.90
10175;DHT22;18221;38.704;0.152;2023-05-01T22:45:12;18.20;99.90
10175;DHT22;18221;38.704;0.152;2023-05-01T22:47:40;18.00;99.90
10175;DHT22;18221;38.704;0.152;2023-05-01T22:50:10;18.00;99.90
10175;DHT22;18221;38.704;0.152;2023-05-01T22:52:39;18.00;99.90
10175;DHT22;18221;38.704;0.152;2023-05-01T22:55:07;18.10;99.90
10175;DHT22;18221;38.704;0.152;2023-05-01T22:57:36;18.10;99.90
10175;DHT22;18221;38.704;0.152;2023-05-01T23:00:05;18.00;99.90
10175;DHT22;18221;38.704;0.152;2023-05-01T23:02:35;18.00;99.90
10175;DHT22;18221;38.704;0.152;2023-05-01T23:05:03;18.00;99.90
10175;DHT22;18221;38.704;0.152;2023-05-01T23:07:36;18.00;99.90
10175;DHT22;18221;38.704;0.152;2023-05-01T23:10:09;18.00;99.90
10175;DHT22;18221;38.704;0.152;2023-05-01T23:12:41;17.90;99.90
10175;DHT22;18221;38.704;0.152;2023-05-01T23:15:11;17.90;99.90
10175;DHT22;18221;38.704;0.152;2023-05-01T23:17:45;17.90;99.90
10175;DHT22;18221;38.704;0.152;2023-05-01T23:20:19;17.90;99.90
10175;DHT22;18221;38.704;0.152;2023-05-01T23:22:53;18.00;99.90
10175;DHT22;18221;38.704;0.152;2023-05-01T23:25:23;18.00;99.90
10175;DHT22;18221;38.704;0.152;2023-05-01T23:27:54;17.90;99.90
10175;DHT22;18221;38.704;0.152;2023-05-01T23:30:23;17.80;99.90
10175;DHT22;18221;38.704;0.152;2023-05-01T23:32:51;17.80;99.90
10175;DHT22;18221;38.704;0.152;2023-05-01T23:35:24;17.80;99.90
10175;DHT22;18221;38.704;0.152;2023-05-01T23:37:54;17.80;99.90
10175;DHT22;18221;38.704;0.152;2023-05-01T23:40:22;17.90;99.90
10175;DHT22;18221;38.704;0.152;2023-05-01T23:42:51;17.90;99.90
10175;DHT22;18221;38.704;0.152;2023-05-01T23:45:20;17.90;99.90
10175;DHT22;18221;38.704;0.152;2023-05-01T23:47:48;17.90;99.90
10175;DHT22;18221;38.704;0.152;2023-05-01T23:50:17;17.90;99.90
10175;DHT22;18221;38.704;0.152;2023-05-01T23:52:45;17.90;99.90
10175;DHT22;18221;38.704;0.152;2023-05-01T23:55:16;17.90;99.90
10175;DHT22;18221;38.704;0.152;2023-05-01T23:57:45;17.90;99.90
